sensor_id;sensor_type;location;lat;lon;timestamp;P1;durP1;ratioP1;P2;durP2;ratioP2
31091;SDS011;67728;53.122;12.776;2023-04-02T00:02:55;281.17;;;51.47;;
31091;SDS011;67728;53.122;12.776;2023-04-02T00:04:30;279.20;;;50.57;;
31091;SDS011;67728;53.122;12.776;2023-04-02T00:06:15;280.00;;;51.27;;
31091;SDS011;67728;53.122;12.776;2023-04-02T00:08:16;281.97;;;50.77;;
31091;SDS011;67728;53.122;12.776;2023-04-02T00:09:50;279.23;;;50.27;;
31091;SDS011;67728;53.122;12.776;2023-04-02T00:11:25;284.23;;;51.70;;
31091;SDS011;67728;53.122;12.776;2023-04-02T00:13:02;279.47;;;51.03;;
31091;SDS011;67728;53.122;12.776;2023-04-02T00:14:35;280.23;;;50.83;;
31091;SDS011;67728;53.122;12.776;2023-04-02T00:16:10;280.93;;;51.47;;
31091;SDS011;67728;53.122;12.776;2023-04-02T00:17:43;278.57;;;50.83;;
31091;SDS011;67728;53.122;12.776;2023-04-02T00:19:16;283.87;;;51.90;;
31091;SDS011;67728;53.122;12.776;2023-04-02T00:20:51;282.63;;;51.20;;
31091;SDS011;67728;53.122;12.776;2023-04-02T00:22:26;280.87;;;50.97;;
31091;SDS011;67728;53.122;12.776;2023-04-02T00:24:05;284.63;;;51.73;;
31091;SDS011;67728;53.122;12.776;2023-04-02T00:25:44;282.33;;;51.43;;
31091;SDS011;67728;53.122;12.776;2023-04-02T00:27:16;282.47;;;51.50;;
31091;SDS011;67728;53.122;12.776;2023-04-02T00:28:48;281.20;;;51.13;;
31091;SDS011;67728;53.122;12.776;2023-04-02T00:30:20;282.70;;;51.37;;
31091;SDS011;67728;53.122;12.776;2023-04-02T00:31:52;286.60;;;52.37;;
31091;SDS011;67728;53.122;12.776;2023-04-02T00:33:25;285.20;;;52.20;;
31091;SDS011;67728;53.122;12.776;2023-04-02T00:34:59;285.23;;;52.10;;
31091;SDS011;67728;53.122;12.776;2023-04-02T00:36:32;284.17;;;51.80;;
31091;SDS011;67728;53.122;12.776;2023-04-02T00:38:04;283.90;;;52.10;;
31091;SDS011;67728;53.122;12.776;2023-04-02T00:39:38;282.57;;;51.67;;
31091;SDS011;67728;53.122;12.776;2023-04-02T00:41:12;284.47;;;51.67;;
31091;SDS011;67728;53.122;12.776;2023-04-02T00:42:47;284.27;;;52.00;;
31091;SDS011;67728;53.122;12.776;2023-04-02T00:44:19;284.50;;;51.80;;
31091;SDS011;67728;53.122;12.776;2023-04-02T00:45:53;283.73;;;51.53;;
31091;SDS011;67728;53.122;12.776;2023-04-02T00:47:31;284.77;;;51.70;;
31091;SDS011;67728;53.122;12.776;2023-04-02T00:49:06;280.23;;;50.60;;
31091;SDS011;67728;53.122;12.776;2023-04-02T00:50:39;283.27;;;51.80;;
31091;SDS011;67728;53.122;12.776;2023-04-02T00:52:14;283.70;;;51.90;;
31091;SDS011;67728;53.122;12.776;2023-04-02T00:53:48;281.37;;;51.67;;
31091;SDS011;67728;53.122;12.776;2023-04-02T00:55:26;286.97;;;52.00;;
31091;SDS011;67728;53.122;12.776;2023-04-02T00:57:04;281.03;;;51.10;;
31091;SDS011;67728;53.122;12.776;2023-04-02T00:58:49;283.27;;;51.57;;
31091;SDS011;67728;53.122;12.776;2023-04-02T01:00:26;284.10;;;51.77;;
31091;SDS011;67728;53.122;12.776;2023-04-02T01:02:00;282.23;;;51.60;;
31091;SDS011;67728;53.122;12.776;2023-04-02T01:03:52;282.40;;;51.57;;
31091;SDS011;67728;53.122;12.776;2023-04-02T01:05:27;284.37;;;52.27;;
31091;SDS011;67728;53.122;12.776;2023-04-02T01:07:05;283.60;;;51.90;;
31091;SDS011;67728;53.122;12.776;2023-04-02T01:08:48;283.03;;;51.67;;
31091;SDS011;67728;53.122;12.776;2023-04-02T01:10:39;282.80;;;51.53;;
31091;SDS011;67728;53.122;12.776;2023-04-02T01:12:34;285.00;;;51.90;;
31091;SDS011;67728;53.122;12.776;2023-04-02T01:14:17;281.43;;;51.20;;
31091;SDS011;67728;53.122;12.776;2023-04-02T01:15:56;283.13;;;51.67;;
31091;SDS011;67728;53.122;12.776;2023-04-02T01:17:37;285.70;;;51.83;;
31091;SDS011;67728;53.122;12.776;2023-04-02T01:19:36;283.00;;;51.33;;
31091;SDS011;67728;53.122;12.776;2023-04-02T01:21:34;280.03;;;51.20;;
31091;SDS011;67728;53.122;12.776;2023-04-02T01:23:12;280.40;;;51.13;;
31091;SDS011;67728;53.122;12.776;2023-04-02T01:24:47;283.10;;;51.50;;
31091;SDS011;67728;53.122;12.776;2023-04-02T01:26:24;285.27;;;51.97;;
31091;SDS011;67728;53.122;12.776;2023-04-02T01:28:05;281.13;;;51.03;;
31091;SDS011;67728;53.122;12.776;2023-04-02T01:29:43;281.30;;;51.03;;
31091;SDS011;67728;53.122;12.776;2023-04-02T01:31:18;283.43;;;51.13;;
31091;SDS011;67728;53.122;12.776;2023-04-02T01:32:51;279.97;;;50.57;;
31091;SDS011;67728;53.122;12.776;2023-04-02T01:34:24;284.87;;;51.30;;
31091;SDS011;67728;53.122;12.776;2023-04-02T01:35:58;283.10;;;50.80;;
31091;SDS011;67728;53.122;12.776;2023-04-02T01:37:37;282.60;;;50.73;;
31091;SDS011;67728;53.122;12.776;2023-04-02T01:39:19;286.10;;;51.27;;
31091;SDS011;67728;53.122;12.776;2023-04-02T01:41:04;280.77;;;50.73;;
31091;SDS011;67728;53.122;12.776;2023-04-02T01:42:43;283.13;;;51.30;;
31091;SDS011;67728;53.122;12.776;2023-04-02T01:44:22;281.73;;;51.17;;
31091;SDS011;67728;53.122;12.776;2023-04-02T01:46:05;281.30;;;51.07;;
31091;SDS011;67728;53.122;12.776;2023-04-02T01:47:53;280.10;;;50.70;;
31091;SDS011;67728;53.122;12.776;2023-04-02T01:49:26;281.47;;;50.80;;
31091;SDS011;67728;53.122;12.776;2023-04-02T01:50:58;281.70;;;51.20;;
31091;SDS011;67728;53.122;12.776;2023-04-02T01:52:34;282.10;;;51.07;;
31091;SDS011;67728;53.122;12.776;2023-04-02T01:54:10;281.73;;;50.87;;
31091;SDS011;67728;53.122;12.776;2023-04-02T01:55:44;283.00;;;50.97;;
31091;SDS011;67728;53.122;12.776;2023-04-02T01:57:18;282.23;;;50.73;;
31091;SDS011;67728;53.122;12.776;2023-04-02T01:58:49;282.97;;;50.73;;
31091;SDS011;67728;53.122;12.776;2023-04-02T02:00:21;285.93;;;51.17;;
31091;SDS011;67728;53.122;12.776;2023-04-02T02:01:57;281.90;;;50.43;;
31091;SDS011;67728;53.122;12.776;2023-04-02T02:03:31;281.83;;;50.30;;
31091;SDS011;67728;53.122;12.776;2023-04-02T02:05:04;281.80;;;50.50;;
31091;SDS011;67728;53.122;12.776;2023-04-02T02:06:42;281.50;;;50.50;;
31091;SDS011;67728;53.122;12.776;2023-04-02T02:08:21;281.13;;;50.43;;
31091;SDS011;67728;53.122;12.776;2023-04-02T02:10:00;280.57;;;50.37;;
31091;SDS011;67728;53.122;12.776;2023-04-02T02:11:32;282.10;;;50.53;;
31091;SDS011;67728;53.122;12.776;2023-04-02T02:13:05;281.73;;;50.47;;
31091;SDS011;67728;53.122;12.776;2023-04-02T02:14:36;281.20;;;50.30;;
31091;SDS011;67728;53.122;12.776;2023-04-02T02:16:09;279.50;;;50.13;;
31091;SDS011;67728;53.122;12.776;2023-04-02T02:17:45;281.60;;;50.57;;
31091;SDS011;67728;53.122;12.776;2023-04-02T02:19:19;282.70;;;50.57;;
31091;SDS011;67728;53.122;12.776;2023-04-02T02:20:56;293.87;;;62.47;;
31091;SDS011;67728;53.122;12.776;2023-04-02T02:22:30;280.70;;;50.40;;
31091;SDS011;67728;53.122;12.776;2023-04-02T02:24:05;283.23;;;50.70;;
31091;SDS011;67728;53.122;12.776;2023-04-02T02:25:45;283.70;;;50.63;;
31091;SDS011;67728;53.122;12.776;2023-04-02T02:29:16;281.07;;;50.27;;
31091;SDS011;67728;53.122;12.776;2023-04-02T02:30:52;281.97;;;50.53;;
31091;SDS011;67728;53.122;12.776;2023-04-02T02:32:27;281.07;;;50.30;;
31091;SDS011;67728;53.122;12.776;2023-04-02T02:34:01;284.83;;;50.93;;
31091;SDS011;67728;53.122;12.776;2023-04-02T02:35:40;283.23;;;50.87;;
31091;SDS011;67728;53.122;12.776;2023-04-02T02:37:16;284.77;;;51.47;;
31091;SDS011;67728;53.122;12.776;2023-04-02T02:38:54;288.63;;;52.03;;
31091;SDS011;67728;53.122;12.776;2023-04-02T02:40:31;286.50;;;51.50;;
31091;SDS011;67728;53.122;12.776;2023-04-02T02:42:09;281.70;;;50.90;;
31091;SDS011;67728;53.122;12.776;2023-04-02T02:43:48;282.23;;;51.13;;
31091;SDS011;67728;53.122;12.776;2023-04-02T02:45:25;281.00;;;50.73;;
31091;SDS011;67728;53.122;12.776;2023-04-02T02:47:00;282.37;;;51.10;;
31091;SDS011;67728;53.122;12.776;2023-04-02T02:48:35;281.20;;;50.67;;
31091;SDS011;67728;53.122;12.776;2023-04-02T02:50:13;283.57;;;50.90;;
31091;SDS011;67728;53.122;12.776;2023-04-02T02:51:51;281.63;;;50.60;;
31091;SDS011;67728;53.122;12.776;2023-04-02T02:53:27;283.40;;;50.97;;
31091;SDS011;67728;53.122;12.776;2023-04-02T02:54:59;282.53;;;50.67;;
31091;SDS011;67728;53.122;12.776;2023-04-02T02:56:34;282.50;;;50.87;;
31091;SDS011;67728;53.122;12.776;2023-04-02T02:58:13;282.97;;;50.93;;
31091;SDS011;67728;53.122;12.776;2023-04-02T02:59:48;282.37;;;50.60;;
31091;SDS011;67728;53.122;12.776;2023-04-02T03:01:22;286.30;;;51.13;;
31091;SDS011;67728;53.122;12.776;2023-04-02T03:02:53;283.20;;;50.83;;
31091;SDS011;67728;53.122;12.776;2023-04-02T03:04:27;282.90;;;51.30;;
31091;SDS011;67728;53.122;12.776;2023-04-02T03:06:01;281.90;;;50.83;;
31091;SDS011;67728;53.122;12.776;2023-04-02T03:07:35;282.07;;;50.87;;
31091;SDS011;67728;53.122;12.776;2023-04-02T03:09:10;285.73;;;51.67;;
31091;SDS011;67728;53.122;12.776;2023-04-02T03:10:47;283.13;;;51.13;;
31091;SDS011;67728;53.122;12.776;2023-04-02T03:12:30;282.13;;;50.63;;
31091;SDS011;67728;53.122;12.776;2023-04-02T03:14:09;285.40;;;51.37;;
31091;SDS011;67728;53.122;12.776;2023-04-02T03:15:53;285.07;;;51.20;;
31091;SDS011;67728;53.122;12.776;2023-04-02T03:17:31;283.53;;;50.60;;
31091;SDS011;67728;53.122;12.776;2023-04-02T03:19:06;281.37;;;50.30;;
31091;SDS011;67728;53.122;12.776;2023-04-02T03:20:45;280.30;;;50.30;;
31091;SDS011;67728;53.122;12.776;2023-04-02T03:22:24;280.50;;;50.33;;
31091;SDS011;67728;53.122;12.776;2023-04-02T03:24:02;282.77;;;50.57;;
31091;SDS011;67728;53.122;12.776;2023-04-02T03:25:40;280.53;;;50.30;;
31091;SDS011;67728;53.122;12.776;2023-04-02T03:27:17;287.47;;;51.60;;
31091;SDS011;67728;53.122;12.776;2023-04-02T03:28:53;281.57;;;50.40;;
31091;SDS011;67728;53.122;12.776;2023-04-02T03:30:32;279.17;;;50.10;;
31091;SDS011;67728;53.122;12.776;2023-04-02T03:32:11;281.57;;;50.53;;
31091;SDS011;67728;53.122;12.776;2023-04-02T03:33:47;280.97;;;50.30;;
31091;SDS011;67728;53.122;12.776;2023-04-02T03:35:27;281.63;;;50.33;;
31091;SDS011;67728;53.122;12.776;2023-04-02T03:37:04;281.63;;;50.50;;
31091;SDS011;67728;53.122;12.776;2023-04-02T03:38:43;281.60;;;50.43;;
31091;SDS011;67728;53.122;12.776;2023-04-02T03:40:17;284.00;;;50.80;;
31091;SDS011;67728;53.122;12.776;2023-04-02T03:41:53;281.83;;;50.50;;
31091;SDS011;67728;53.122;12.776;2023-04-02T03:43:29;286.30;;;51.27;;
31091;SDS011;67728;53.122;12.776;2023-04-02T03:45:06;279.63;;;50.27;;
31091;SDS011;67728;53.122;12.776;2023-04-02T03:46:46;281.23;;;50.40;;
31091;SDS011;67728;53.122;12.776;2023-04-02T03:48:26;283.53;;;50.67;;
31091;SDS011;67728;53.122;12.776;2023-04-02T03:50:05;281.50;;;50.40;;
31091;SDS011;67728;53.122;12.776;2023-04-02T03:51:38;281.43;;;50.30;;
31091;SDS011;67728;53.122;12.776;2023-04-02T03:53:14;282.17;;;50.63;;
31091;SDS011;67728;53.122;12.776;2023-04-02T03:54:47;281.13;;;50.33;;
31091;SDS011;67728;53.122;12.776;2023-04-02T03:56:22;283.87;;;51.00;;
31091;SDS011;67728;53.122;12.776;2023-04-02T03:57:58;282.77;;;50.63;;
31091;SDS011;67728;53.122;12.776;2023-04-02T03:59:36;284.40;;;50.90;;
31091;SDS011;67728;53.122;12.776;2023-04-02T04:01:13;281.93;;;50.50;;
31091;SDS011;67728;53.122;12.776;2023-04-02T04:02:50;281.67;;;50.57;;
31091;SDS011;67728;53.122;12.776;2023-04-02T04:04:23;283.53;;;51.10;;
31091;SDS011;67728;53.122;12.776;2023-04-02T04:05:58;284.50;;;51.23;;
31091;SDS011;67728;53.122;12.776;2023-04-02T04:07:31;282.13;;;50.77;;
31091;SDS011;67728;53.122;12.776;2023-04-02T04:09:06;282.77;;;51.07;;
31091;SDS011;67728;53.122;12.776;2023-04-02T04:10:42;282.53;;;51.00;;
31091;SDS011;67728;53.122;12.776;2023-04-02T04:12:17;283.83;;;51.17;;
31091;SDS011;67728;53.122;12.776;2023-04-02T04:13:56;284.13;;;51.13;;
31091;SDS011;67728;53.122;12.776;2023-04-02T04:15:31;280.87;;;50.43;;
31091;SDS011;67728;53.122;12.776;2023-04-02T04:17:09;281.17;;;50.53;;
31091;SDS011;67728;53.122;12.776;2023-04-02T04:18:46;283.00;;;51.13;;
31091;SDS011;67728;53.122;12.776;2023-04-02T04:20:22;283.30;;;51.13;;
31091;SDS011;67728;53.122;12.776;2023-04-02T04:22:08;284.20;;;51.37;;
31091;SDS011;67728;53.122;12.776;2023-04-02T04:23:46;281.27;;;50.57;;
31091;SDS011;67728;53.122;12.776;2023-04-02T04:25:22;281.60;;;50.57;;
31091;SDS011;67728;53.122;12.776;2023-04-02T04:27:01;281.83;;;50.60;;
31091;SDS011;67728;53.122;12.776;2023-04-02T04:28:40;279.27;;;50.20;;
31091;SDS011;67728;53.122;12.776;2023-04-02T04:30:20;279.37;;;50.40;;
31091;SDS011;67728;53.122;12.776;2023-04-02T04:31:56;276.70;;;49.97;;
31091;SDS011;67728;53.122;12.776;2023-04-02T04:33:46;282.97;;;50.90;;
31091;SDS011;67728;53.122;12.776;2023-04-02T04:35:24;286.97;;;51.67;;
31091;SDS011;67728;53.122;12.776;2023-04-02T04:37:00;279.67;;;50.57;;
31091;SDS011;67728;53.122;12.776;2023-04-02T04:38:37;279.60;;;50.40;;
31091;SDS011;67728;53.122;12.776;2023-04-02T04:40:15;280.00;;;50.53;;
31091;SDS011;67728;53.122;12.776;2023-04-02T04:41:50;282.20;;;50.90;;
31091;SDS011;67728;53.122;12.776;2023-04-02T04:43:26;281.17;;;50.67;;
31091;SDS011;67728;53.122;12.776;2023-04-02T04:45:05;280.80;;;50.67;;
31091;SDS011;67728;53.122;12.776;2023-04-02T04:46:44;280.40;;;50.33;;
31091;SDS011;67728;53.122;12.776;2023-04-02T04:48:20;283.43;;;51.27;;
31091;SDS011;67728;53.122;12.776;2023-04-02T04:49:57;279.03;;;50.43;;
31091;SDS011;67728;53.122;12.776;2023-04-02T04:51:35;276.77;;;49.90;;
31091;SDS011;67728;53.122;12.776;2023-04-02T04:53:12;280.97;;;50.57;;
31091;SDS011;67728;53.122;12.776;2023-04-02T04:54:46;292.63;;;52.70;;
31091;SDS011;67728;53.122;12.776;2023-04-02T04:56:19;297.70;;;53.80;;
31091;SDS011;67728;53.122;12.776;2023-04-02T04:57:54;314.00;;;56.37;;
31091;SDS011;67728;53.122;12.776;2023-04-02T04:59:30;280.87;;;50.47;;
31091;SDS011;67728;53.122;12.776;2023-04-02T05:01:12;279.37;;;50.20;;
31091;SDS011;67728;53.122;12.776;2023-04-02T05:02:49;279.13;;;49.90;;
31091;SDS011;67728;53.122;12.776;2023-04-02T05:04:25;279.73;;;49.97;;
31091;SDS011;67728;53.122;12.776;2023-04-02T05:06:03;278.43;;;49.80;;
31091;SDS011;67728;53.122;12.776;2023-04-02T05:07:42;279.87;;;50.10;;
31091;SDS011;67728;53.122;12.776;2023-04-02T05:09:19;280.47;;;50.10;;
31091;SDS011;67728;53.122;12.776;2023-04-02T05:10:58;280.27;;;50.23;;
31091;SDS011;67728;53.122;12.776;2023-04-02T05:12:33;280.20;;;50.03;;
31091;SDS011;67728;53.122;12.776;2023-04-02T05:14:11;278.33;;;49.53;;
31091;SDS011;67728;53.122;12.776;2023-04-02T05:15:53;277.10;;;49.60;;
31091;SDS011;67728;53.122;12.776;2023-04-02T05:17:32;280.00;;;50.20;;
31091;SDS011;67728;53.122;12.776;2023-04-02T05:19:09;280.33;;;50.10;;
31091;SDS011;67728;53.122;12.776;2023-04-02T05:20:47;278.80;;;49.87;;
31091;SDS011;67728;53.122;12.776;2023-04-02T05:22:24;282.33;;;50.47;;
31091;SDS011;67728;53.122;12.776;2023-04-02T05:24:12;277.53;;;49.77;;
31091;SDS011;67728;53.122;12.776;2023-04-02T05:26:07;277.00;;;49.50;;
31091;SDS011;67728;53.122;12.776;2023-04-02T05:27:44;277.80;;;49.70;;
31091;SDS011;67728;53.122;12.776;2023-04-02T05:29:23;282.10;;;50.60;;
31091;SDS011;67728;53.122;12.776;2023-04-02T05:31:01;280.03;;;50.23;;
31091;SDS011;67728;53.122;12.776;2023-04-02T05:32:39;277.37;;;49.57;;
31091;SDS011;67728;53.122;12.776;2023-04-02T05:34:20;282.93;;;50.70;;
31091;SDS011;67728;53.122;12.776;2023-04-02T05:35:56;278.97;;;49.97;;
31091;SDS011;67728;53.122;12.776;2023-04-02T05:37:31;279.23;;;50.20;;
31091;SDS011;67728;53.122;12.776;2023-04-02T05:39:06;278.17;;;49.90;;
31091;SDS011;67728;53.122;12.776;2023-04-02T05:40:40;278.83;;;50.10;;
31091;SDS011;67728;53.122;12.776;2023-04-02T05:42:16;280.23;;;50.17;;
31091;SDS011;67728;53.122;12.776;2023-04-02T05:43:57;278.97;;;49.90;;
31091;SDS011;67728;53.122;12.776;2023-04-02T05:45:36;279.97;;;50.40;;
31091;SDS011;67728;53.122;12.776;2023-04-02T05:47:13;278.70;;;49.87;;
31091;SDS011;67728;53.122;12.776;2023-04-02T05:48:51;278.10;;;49.70;;
31091;SDS011;67728;53.122;12.776;2023-04-02T05:50:27;279.30;;;50.27;;
31091;SDS011;67728;53.122;12.776;2023-04-02T05:52:02;281.17;;;50.50;;
31091;SDS011;67728;53.122;12.776;2023-04-02T05:53:38;281.33;;;50.37;;
31091;SDS011;67728;53.122;12.776;2023-04-02T05:55:26;284.03;;;51.03;;
31091;SDS011;67728;53.122;12.776;2023-04-02T05:57:05;278.63;;;50.00;;
31091;SDS011;67728;53.122;12.776;2023-04-02T05:58:43;281.50;;;50.30;;
31091;SDS011;67728;53.122;12.776;2023-04-02T06:00:19;281.43;;;50.37;;
31091;SDS011;67728;53.122;12.776;2023-04-02T06:01:56;282.03;;;50.47;;
31091;SDS011;67728;53.122;12.776;2023-04-02T06:03:37;279.17;;;50.07;;
31091;SDS011;67728;53.122;12.776;2023-04-02T06:05:15;281.77;;;50.40;;
31091;SDS011;67728;53.122;12.776;2023-04-02T06:06:51;282.50;;;50.47;;
31091;SDS011;67728;53.122;12.776;2023-04-02T06:08:30;283.27;;;50.57;;
31091;SDS011;67728;53.122;12.776;2023-04-02T06:10:07;281.30;;;50.33;;
31091;SDS011;67728;53.122;12.776;2023-04-02T06:11:42;279.57;;;50.00;;
31091;SDS011;67728;53.122;12.776;2023-04-02T06:13:16;280.70;;;50.23;;
31091;SDS011;67728;53.122;12.776;2023-04-02T06:14:49;284.13;;;50.97;;
31091;SDS011;67728;53.122;12.776;2023-04-02T06:16:22;279.00;;;49.97;;
31091;SDS011;67728;53.122;12.776;2023-04-02T06:17:57;277.77;;;49.70;;
31091;SDS011;67728;53.122;12.776;2023-04-02T06:19:34;285.43;;;50.87;;
31091;SDS011;67728;53.122;12.776;2023-04-02T06:21:08;279.13;;;49.70;;
31091;SDS011;67728;53.122;12.776;2023-04-02T06:22:46;281.63;;;50.40;;
31091;SDS011;67728;53.122;12.776;2023-04-02T06:24:21;282.27;;;50.37;;
31091;SDS011;67728;53.122;12.776;2023-04-02T06:25:57;282.23;;;50.50;;
31091;SDS011;67728;53.122;12.776;2023-04-02T06:27:31;279.60;;;49.97;;
31091;SDS011;67728;53.122;12.776;2023-04-02T06:29:05;281.67;;;50.47;;
31091;SDS011;67728;53.122;12.776;2023-04-02T06:30:42;284.23;;;51.13;;
31091;SDS011;67728;53.122;12.776;2023-04-02T06:32:14;283.57;;;50.93;;
31091;SDS011;67728;53.122;12.776;2023-04-02T06:33:45;283.27;;;50.77;;
31091;SDS011;67728;53.122;12.776;2023-04-02T06:35:22;286.57;;;52.10;;
31091;SDS011;67728;53.122;12.776;2023-04-02T06:36:54;288.80;;;52.00;;
31091;SDS011;67728;53.122;12.776;2023-04-02T06:38:28;283.07;;;51.00;;
31091;SDS011;67728;53.122;12.776;2023-04-02T06:40:02;287.53;;;51.83;;
31091;SDS011;67728;53.122;12.776;2023-04-02T06:41:35;282.27;;;50.67;;
31091;SDS011;67728;53.122;12.776;2023-04-02T06:43:10;282.53;;;50.77;;
31091;SDS011;67728;53.122;12.776;2023-04-02T06:44:46;285.83;;;51.40;;
31091;SDS011;67728;53.122;12.776;2023-04-02T06:46:19;284.00;;;51.00;;
31091;SDS011;67728;53.122;12.776;2023-04-02T06:47:55;286.43;;;51.43;;
31091;SDS011;67728;53.122;12.776;2023-04-02T06:49:31;285.93;;;51.20;;
31091;SDS011;67728;53.122;12.776;2023-04-02T06:51:09;282.90;;;50.93;;
31091;SDS011;67728;53.122;12.776;2023-04-02T06:52:43;281.87;;;50.50;;
31091;SDS011;67728;53.122;12.776;2023-04-02T06:54:17;283.23;;;50.90;;
31091;SDS011;67728;53.122;12.776;2023-04-02T06:55:50;282.27;;;50.77;;
31091;SDS011;67728;53.122;12.776;2023-04-02T06:57:25;281.83;;;51.13;;
31091;SDS011;67728;53.122;12.776;2023-04-02T06:58:56;282.77;;;51.07;;
31091;SDS011;67728;53.122;12.776;2023-04-02T07:00:31;286.43;;;51.60;;
31091;SDS011;67728;53.122;12.776;2023-04-02T07:02:13;283.53;;;51.03;;
31091;SDS011;67728;53.122;12.776;2023-04-02T07:03:54;283.60;;;51.47;;
31091;SDS011;67728;53.122;12.776;2023-04-02T07:05:27;290.10;;;52.90;;
31091;SDS011;67728;53.122;12.776;2023-04-02T07:07:00;292.53;;;53.57;;
31091;SDS011;67728;53.122;12.776;2023-04-02T07:08:31;287.27;;;52.77;;
31091;SDS011;67728;53.122;12.776;2023-04-02T07:10:03;287.00;;;53.13;;
31091;SDS011;67728;53.122;12.776;2023-04-02T07:11:36;287.20;;;51.93;;
31091;SDS011;67728;53.122;12.776;2023-04-02T07:13:08;287.70;;;52.17;;
31091;SDS011;67728;53.122;12.776;2023-04-02T07:14:42;287.80;;;51.90;;
31091;SDS011;67728;53.122;12.776;2023-04-02T07:16:17;288.80;;;51.97;;
31091;SDS011;67728;53.122;12.776;2023-04-02T07:17:51;285.80;;;51.47;;
31091;SDS011;67728;53.122;12.776;2023-04-02T07:19:23;283.93;;;51.17;;
31091;SDS011;67728;53.122;12.776;2023-04-02T07:20:56;283.93;;;51.63;;
31091;SDS011;67728;53.122;12.776;2023-04-02T07:22:29;288.30;;;51.70;;
31091;SDS011;67728;53.122;12.776;2023-04-02T07:24:00;285.67;;;51.40;;
31091;SDS011;67728;53.122;12.776;2023-04-02T07:25:32;286.90;;;52.13;;
31091;SDS011;67728;53.122;12.776;2023-04-02T07:27:04;285.97;;;52.07;;
31091;SDS011;67728;53.122;12.776;2023-04-02T07:28:36;286.40;;;51.90;;
31091;SDS011;67728;53.122;12.776;2023-04-02T07:30:07;290.97;;;52.80;;
31091;SDS011;67728;53.122;12.776;2023-04-02T07:31:40;287.37;;;51.60;;
31091;SDS011;67728;53.122;12.776;2023-04-02T07:33:12;291.43;;;52.50;;
31091;SDS011;67728;53.122;12.776;2023-04-02T07:34:44;286.77;;;51.73;;
31091;SDS011;67728;53.122;12.776;2023-04-02T07:36:18;289.47;;;52.40;;
31091;SDS011;67728;53.122;12.776;2023-04-02T07:37:52;289.17;;;52.17;;
31091;SDS011;67728;53.122;12.776;2023-04-02T07:39:27;288.60;;;52.10;;
31091;SDS011;67728;53.122;12.776;2023-04-02T07:41:03;288.07;;;52.20;;
31091;SDS011;67728;53.122;12.776;2023-04-02T07:42:35;284.83;;;51.47;;
31091;SDS011;67728;53.122;12.776;2023-04-02T07:44:08;285.77;;;51.80;;
31091;SDS011;67728;53.122;12.776;2023-04-02T07:45:40;285.93;;;52.13;;
31091;SDS011;67728;53.122;12.776;2023-04-02T07:47:12;287.00;;;51.87;;
31091;SDS011;67728;53.122;12.776;2023-04-02T07:48:43;287.80;;;52.20;;
31091;SDS011;67728;53.122;12.776;2023-04-02T07:50:15;287.43;;;52.50;;
31091;SDS011;67728;53.122;12.776;2023-04-02T07:51:47;292.50;;;52.93;;
31091;SDS011;67728;53.122;12.776;2023-04-02T07:53:26;288.60;;;52.50;;
31091;SDS011;67728;53.122;12.776;2023-04-02T07:54:59;287.80;;;51.87;;
31091;SDS011;67728;53.122;12.776;2023-04-02T07:56:31;285.50;;;51.77;;
31091;SDS011;67728;53.122;12.776;2023-04-02T07:58:04;287.43;;;51.97;;
31091;SDS011;67728;53.122;12.776;2023-04-02T07:59:38;291.77;;;53.03;;
31091;SDS011;67728;53.122;12.776;2023-04-02T08:01:14;288.43;;;52.17;;
31091;SDS011;67728;53.122;12.776;2023-04-02T08:02:48;293.10;;;52.93;;
31091;SDS011;67728;53.122;12.776;2023-04-02T08:04:20;297.30;;;54.03;;
31091;SDS011;67728;53.122;12.776;2023-04-02T08:05:54;291.87;;;53.50;;
31091;SDS011;67728;53.122;12.776;2023-04-02T08:07:26;297.27;;;54.27;;
31091;SDS011;67728;53.122;12.776;2023-04-02T08:08:59;292.97;;;53.57;;
31091;SDS011;67728;53.122;12.776;2023-04-02T08:10:31;294.53;;;53.23;;
31091;SDS011;67728;53.122;12.776;2023-04-02T08:12:03;290.10;;;52.60;;
31091;SDS011;67728;53.122;12.776;2023-04-02T08:13:35;290.67;;;52.87;;
31091;SDS011;67728;53.122;12.776;2023-04-02T08:15:08;291.20;;;52.60;;
31091;SDS011;67728;53.122;12.776;2023-04-02T08:16:47;288.83;;;52.47;;
31091;SDS011;67728;53.122;12.776;2023-04-02T08:18:20;291.17;;;52.97;;
31091;SDS011;67728;53.122;12.776;2023-04-02T08:19:52;292.20;;;54.03;;
31091;SDS011;67728;53.122;12.776;2023-04-02T08:21:25;291.67;;;53.20;;
31091;SDS011;67728;53.122;12.776;2023-04-02T08:22:56;291.03;;;53.20;;
31091;SDS011;67728;53.122;12.776;2023-04-02T08:24:31;293.67;;;53.40;;
31091;SDS011;67728;53.122;12.776;2023-04-02T08:26:03;292.10;;;52.90;;
31091;SDS011;67728;53.122;12.776;2023-04-02T08:27:35;294.40;;;53.70;;
31091;SDS011;67728;53.122;12.776;2023-04-02T08:29:07;295.83;;;53.97;;
31091;SDS011;67728;53.122;12.776;2023-04-02T08:30:39;292.93;;;53.27;;
31091;SDS011;67728;53.122;12.776;2023-04-02T08:32:11;298.57;;;54.43;;
31091;SDS011;67728;53.122;12.776;2023-04-02T08:33:45;293.73;;;53.33;;
31091;SDS011;67728;53.122;12.776;2023-04-02T08:35:17;294.37;;;53.60;;
31091;SDS011;67728;53.122;12.776;2023-04-02T08:36:49;296.13;;;53.90;;
31091;SDS011;67728;53.122;12.776;2023-04-02T08:38:21;298.50;;;54.77;;
31091;SDS011;67728;53.122;12.776;2023-04-02T08:39:54;298.27;;;54.33;;
31091;SDS011;67728;53.122;12.776;2023-04-02T08:41:25;291.97;;;55.60;;
31091;SDS011;67728;53.122;12.776;2023-04-02T08:43:03;293.73;;;54.13;;
31091;SDS011;67728;53.122;12.776;2023-04-02T08:44:44;291.70;;;56.10;;
31091;SDS011;67728;53.122;12.776;2023-04-02T08:46:32;305.63;;;56.93;;
31091;SDS011;67728;53.122;12.776;2023-04-02T08:48:08;293.73;;;56.13;;
31091;SDS011;67728;53.122;12.776;2023-04-02T08:49:42;300.10;;;56.10;;
31091;SDS011;67728;53.122;12.776;2023-04-02T08:51:20;295.17;;;55.27;;
31091;SDS011;67728;53.122;12.776;2023-04-02T08:52:54;307.67;;;56.63;;
31091;SDS011;67728;53.122;12.776;2023-04-02T08:54:27;317.47;;;59.50;;
31091;SDS011;67728;53.122;12.776;2023-04-02T08:56:03;302.97;;;57.50;;
31091;SDS011;67728;53.122;12.776;2023-04-02T08:57:48;298.83;;;55.00;;
31091;SDS011;67728;53.122;12.776;2023-04-02T08:59:28;303.37;;;56.67;;
31091;SDS011;67728;53.122;12.776;2023-04-02T09:01:03;296.77;;;55.27;;
31091;SDS011;67728;53.122;12.776;2023-04-02T09:02:38;299.93;;;56.70;;
31091;SDS011;67728;53.122;12.776;2023-04-02T09:04:15;302.47;;;56.53;;
31091;SDS011;67728;53.122;12.776;2023-04-02T09:05:48;306.07;;;57.17;;
31091;SDS011;67728;53.122;12.776;2023-04-02T09:07:22;301.63;;;56.13;;
31091;SDS011;67728;53.122;12.776;2023-04-02T09:08:55;298.73;;;60.03;;
31091;SDS011;67728;53.122;12.776;2023-04-02T09:10:31;300.97;;;55.63;;